Time;durP1;ratioP1;P1;durP2;ratioP2;P2;SDS_P1;SDS_P2;PMS_P1;PMS_P2;Temp;Humidity;BMP_temperature;BMP_pressure;BME280_temperature;BME280_humidity;BME280_pressure;Samples;Min_cycle;Max_cycle;Signal;HPM_P1;HPM_P2
2023/09/07 00:01:45;;;;;;;14.90;9.75;;;;;;;;;;12755302;23;19985;-68
2023/09/07 00:06:45;;;;;;;16.35;9.88;;;;;;;;;;12755148;23;19993;-68
2023/09/07 00:11:45;;;;;;;14.75;9.98;;;;;;;;;;12756314;23;20327;-68
2023/09/07 00:16:46;;;;;;;14.75;9.13;;;;;;;;;;12753568;23;20009;-68
2023/09/07 00:21:46;;;;;;;12.50;9.85;;;;;;;;;;12759330;23;20185;-68
2023/09/07 00:26:46;;;;;;;12.23;8.48;;;;;;;;;;12759429;23;19997;-69
2023/09/07 00:31:46;;;;;;;13.90;9.30;;;;;;;;;;12758991;23;20056;-68
2023/09/07 00:36:47;;;;;;;15.63;9.20;;;;;;;;;;12759126;23;20017;-68
2023/09/07 00:41:47;;;;;;;16.17;9.63;;;;;;;;;;12758846;23;19990;-68
2023/09/07 00:46:47;;;;;;;20.67;11.60;;;;;;;;;;12738203;23;20009;-68
2023/09/07 00:51:47;;;;;;;21.35;10.68;;;;;;;;;;12758617;23;19994;-69
2023/09/07 00:56:48;;;;;;;13.90;10.45;;;;;;;;;;12758729;23;20211;-68
2023/09/07 01:01:49;;;;;;;20.52;11.50;;;;;;;;;;12758538;23;19989;-69
2023/09/07 01:07:12;;;;;;;17.23;12.18;;;;;;;;;;12758465;23;19993;-69
2023/09/07 01:12:15;;;;;;;16.75;11.20;;;;;;;;;;12703066;23;20001;-68
2023/09/07 01:17:16;;;;;;;19.25;13.02;;;;;;;;;;12711485;23;20215;-69
2023/09/07 01:22:17;;;;;;;19.15;11.88;;;;;;;;;;12756851;23;20048;-69
2023/09/07 01:27:18;;;;;;;24.15;12.75;;;;;;;;;;12754961;23;19993;-70
2023/09/07 01:32:18;;;;;;;19.05;12.65;;;;;;;;;;12756904;23;20057;-69
2023/09/07 01:37:19;;;;;;;19.42;11.63;;;;;;;;;;12756618;23;20356;-69
2023/09/07 01:42:21;;;;;;;17.10;12.48;;;;;;;;;;12756094;23;20071;-69
2023/09/07 01:47:21;;;;;;;18.63;12.98;;;;;;;;;;12753897;23;20001;-69
2023/09/07 01:52:22;;;;;;;27.08;12.60;;;;;;;;;;12754131;23;20152;-69
2023/09/07 01:57:22;;;;;;;21.90;13.50;;;;;;;;;;12755514;23;20009;-69
2023/09/07 02:02:22;;;;;;;19.38;13.10;;;;;;;;;;12757401;23;19989;-68
2023/09/07 02:07:22;;;;;;;22.88;13.80;;;;;;;;;;12757193;23;20402;-69
2023/09/07 02:12:23;;;;;;;26.52;12.98;;;;;;;;;;12757495;23;20001;-68
2023/09/07 02:17:23;;;;;;;22.08;13.80;;;;;;;;;;12748664;23;20009;-70
2023/09/07 02:22:23;;;;;;;28.58;13.85;;;;;;;;;;12756671;23;20165;-68
2023/09/07 02:27:23;;;;;;;24.40;14.38;;;;;;;;;;12756968;23;20009;-69
2023/09/07 02:32:24;;;;;;;20.30;12.77;;;;;;;;;;12734853;23;20001;-69
2023/09/07 02:37:24;;;;;;;22.88;13.70;;;;;;;;;;12756282;23;20264;-69
2023/09/07 02:42:25;;;;;;;21.80;13.75;;;;;;;;;;12756883;23;20032;-69
2023/09/07 02:47:25;;;;;;;21.60;13.48;;;;;;;;;;12756778;23;20291;-69
2023/09/07 02:52:25;;;;;;;25.63;13.77;;;;;;;;;;12756430;23;19993;-69
2023/09/07 02:57:25;;;;;;;21.25;13.77;;;;;;;;;;12756474;23;20148;-69
2023/09/07 03:02:27;;;;;;;29.48;14.98;;;;;;;;;;12756524;23;20036;-69
2023/09/07 03:07:30;;;;;;;27.23;15.38;;;;;;;;;;12734086;23;20049;-70
2023/09/07 03:12:30;;;;;;;29.25;15.73;;;;;;;;;;12756164;23;20219;-71
2023/09/07 03:17:30;;;;;;;25.80;17.47;;;;;;;;;;12748382;23;20092;-70
2023/09/07 03:22:31;;;;;;;28.58;18.70;;;;;;;;;;12756000;23;19990;-69
2023/09/07 03:27:31;;;;;;;26.48;18.27;;;;;;;;;;12755892;23;20049;-69
2023/09/07 03:32:33;;;;;;;34.63;17.50;;;;;;;;;;12756029;23;19989;-69
2023/09/07 03:37:33;;;;;;;32.58;19.40;;;;;;;;;;12755663;23;20371;-69
2023/09/07 03:42:33;;;;;;;32.03;18.65;;;;;;;;;;12755749;23;19985;-69
2023/09/07 03:47:34;;;;;;;29.67;17.70;;;;;;;;;;12755655;23;20298;-69
2023/09/07 03:52:34;;;;;;;26.10;18.48;;;;;;;;;;12755626;23;20406;-70
2023/09/07 03:57:34;;;;;;;30.67;17.40;;;;;;;;;;12755048;23;20061;-70
2023/09/07 04:02:34;;;;;;;30.52;19.40;;;;;;;;;;12755415;23;20220;-69
2023/09/07 04:07:35;;;;;;;33.63;17.48;;;;;;;;;;12755433;23;20204;-69
2023/09/07 04:12:35;;;;;;;26.45;17.88;;;;;;;;;;12755143;23;19994;-70
2023/09/07 04:17:40;;;;;;;27.02;17.98;;;;;;;;;;12746030;23;19997;-68
2023/09/07 04:22:40;;;;;;;26.60;18.25;;;;;;;;;;12755323;23;20009;-68
2023/09/07 04:27:40;;;;;;;35.05;19.45;;;;;;;;;;12754755;23;19997;-68
2023/09/07 04:32:41;;;;;;;29.67;19.52;;;;;;;;;;12719062;23;20005;-79
2023/09/07 04:37:47;;;;;;;29.75;19.45;;;;;;;;;;12734115;23;20005;-78
2023/09/07 04:42:47;;;;;;;29.10;18.30;;;;;;;;;;12739047;23;19993;-65
2023/09/07 04:47:49;;;;;;;22.75;16.65;;;;;;;;;;12738949;23;20009;-75
2023/09/07 04:52:49;;;;;;;29.33;16.85;;;;;;;;;;12738785;23;20060;-72
2023/09/07 04:57:49;;;;;;;29.00;18.02;;;;;;;;;;12738924;23;20326;-72
2023/09/07 05:02:50;;;;;;;24.80;16.25;;;;;;;;;;12739290;23;20076;-73
2023/09/07 05:08:15;;;;;;;31.80;16.65;;;;;;;;;;12716406;23;20318;-75
2023/09/07 05:13:15;;;;;;;32.65;19.33;;;;;;;;;;12739299;23;20000;-77
2023/09/07 05:18:16;;;;;;;31.55;19.30;;;;;;;;;;12727970;23;20031;-77
2023/09/07 05:23:19;;;;;;;28.05;18.48;;;;;;;;;;12739625;23;20002;-78
2023/09/07 05:28:19;;;;;;;26.88;17.40;;;;;;;;;;12743524;23;20243;-82
2023/09/07 05:33:20;;;;;;;28.90;16.23;;;;;;;;;;12743171;23;20008;-74
2023/09/07 05:38:20;;;;;;;28.65;17.40;;;;;;;;;;12744682;23;20199;-75
2023/09/07 05:43:20;;;;;;;28.50;17.88;;;;;;;;;;12743288;23;19997;-74
2023/09/07 05:48:21;;;;;;;25.20;16.45;;;;;;;;;;12696195;23;20002;-73
2023/09/07 05:53:21;;;;;;;23.40;15.40;;;;;;;;;;12741527;23;19993;-74
2023/09/07 05:58:22;;;;;;;28.85;16.20;;;;;;;;;;12741182;23;20315;-69
2023/09/07 06:03:22;;;;;;;26.13;15.45;;;;;;;;;;12717701;23;20013;-72
2023/09/07 06:08:22;;;;;;;25.50;15.80;;;;;;;;;;12740871;23;20005;-70
2023/09/07 06:13:22;;;;;;;22.60;13.70;;;;;;;;;;12740411;23;20024;-68
2023/09/07 06:18:23;;;;;;;18.80;12.45;;;;;;;;;;12728663;23;20029;-70
2023/09/07 06:23:23;;;;;;;20.77;11.60;;;;;;;;;;12718898;23;20307;-69
2023/09/07 06:28:23;;;;;;;16.15;10.43;;;;;;;;;;12737638;23;20380;-69
2023/09/07 06:33:24;;;;;;;22.95;11.07;;;;;;;;;;12738308;23;20295;-69
2023/09/07 06:38:25;;;;;;;20.60;10.57;;;;;;;;;;12718115;23;20022;-69
2023/09/07 06:43:26;;;;;;;19.08;9.75;;;;;;;;;;12717754;23;20048;-69
2023/09/07 06:48:26;;;;;;;14.57;8.25;;;;;;;;;;12740208;23;20024;-68
2023/09/07 06:53:26;;;;;;;13.52;8.20;;;;;;;;;;12740008;23;20021;-68
2023/09/07 06:58:27;;;;;;;15.05;7.20;;;;;;;;;;12739328;23;20017;-68
2023/09/07 07:03:28;;;;;;;10.60;7.03;;;;;;;;;;12693730;23;19994;-68
2023/09/07 07:08:29;;;;;;;11.95;6.85;;;;;;;;;;12739757;23;20045;-68
2023/09/07 07:13:29;;;;;;;11.57;7.50;;;;;;;;;;12739214;23;20219;-68
2023/09/07 07:18:29;;;;;;;11.57;7.87;;;;;;;;;;12726662;23;19997;-70
2023/09/07 07:23:30;;;;;;;19.63;9.55;;;;;;;;;;12743314;23;20233;-68
2023/09/07 07:28:30;;;;;;;22.27;8.90;;;;;;;;;;12745085;23;20007;-69
2023/09/07 07:33:30;;;;;;;15.47;7.80;;;;;;;;;;12745848;23;20310;-69
2023/09/07 07:38:31;;;;;;;11.00;7.18;;;;;;;;;;12745157;23;20079;-69
2023/09/07 07:43:32;;;;;;;12.88;8.25;;;;;;;;;;12744987;23;20028;-71
2023/09/07 07:48:35;;;;;;;14.15;7.85;;;;;;;;;;12745733;23;20221;-69
2023/09/07 07:53:35;;;;;;;15.38;7.15;;;;;;;;;;12744940;23;20287;-68
2023/09/07 07:58:35;;;;;;;12.88;7.15;;;;;;;;;;12723156;23;20131;-69
2023/09/07 08:03:35;;;;;;;13.63;7.28;;;;;;;;;;12744678;23;20002;-70
2023/09/07 08:08:36;;;;;;;14.35;6.70;;;;;;;;;;12744559;23;20020;-71
2023/09/07 08:13:36;;;;;;;15.73;7.60;;;;;;;;;;12744869;23;20005;-69
2023/09/07 08:18:37;;;;;;;9.25;6.68;;;;;;;;;;12731540;23;19993;-69
2023/09/07 08:23:37;;;;;;;12.35;7.22;;;;;;;;;;12745078;23;19998;-69
2023/09/07 08:28:37;;;;;;;13.60;6.80;;;;;;;;;;12745250;23;19996;-69
2023/09/07 08:33:40;;;;;;;10.50;5.30;;;;;;;;;;12746093;23;19997;-69
2023/09/07 08:38:40;;;;;;;10.13;5.22;;;;;;;;;;12749480;23;20000;-68
2023/09/07 08:43:46;;;;;;;9.47;4.57;;;;;;;;;;12748271;23;20275;-68
2023/09/07 08:48:46;;;;;;;7.50;5.28;;;;;;;;;;12748282;23;20048;-68
2023/09/07 08:53:47;;;;;;;8.38;5.30;;;;;;;;;;12748791;23;19995;-68
2023/09/07 08:58:49;;;;;;;8.95;5.55;;;;;;;;;;12748560;23;20024;-68
2023/09/07 09:03:50;;;;;;;8.90;4.65;;;;;;;;;;12747184;23;19985;-68
2023/09/07 09:08:54;;;;;;;7.38;4.10;;;;;;;;;;12748988;23;20053;-68
2023/09/07 09:13:54;;;;;;;6.78;4.50;;;;;;;;;;12747284;23;20284;-68
2023/09/07 09:18:57;;;;;;;14.55;4.30;;;;;;;;;;12733156;23;20028;-68
2023/09/07 09:23:58;;;;;;;8.05;4.50;;;;;;;;;;12748332;23;20015;-70
2023/09/07 09:28:59;;;;;;;9.43;5.57;;;;;;;;;;12747931;23;20010;-70
2023/09/07 09:34:00;;;;;;;10.50;4.47;;;;;;;;;;12747472;23;20025;-68
2023/09/07 09:39:00;;;;;;;13.98;4.70;;;;;;;;;;12748564;23;20219;-68
2023/09/07 09:44:02;;;;;;;7.53;4.88;;;;;;;;;;12747050;23;19992;-68
2023/09/07 09:49:04;;;;;;;6.20;3.88;;;;;;;;;;12747529;23;20048;-68
2023/09/07 09:54:04;;;;;;;8.98;4.18;;;;;;;;;;12747457;23;19989;-68
2023/09/07 09:59:04;;;;;;;7.00;4.25;;;;;;;;;;12747466;23;20010;-70
2023/09/07 10:04:05;;;;;;;7.00;4.22;;;;;;;;;;12746632;23;20219;-68
2023/09/07 10:09:10;;;;;;;15.10;4.47;;;;;;;;;;12725804;23;20001;-68
2023/09/07 10:14:13;;;;;;;9.25;4.53;;;;;;;;;;12746773;23;20303;-68
2023/09/07 10:19:20;;;;;;;5.28;4.05;;;;;;;;;;12731517;23;20009;-70
2023/09/07 10:24:25;;;;;;;8.13;3.65;;;;;;;;;;12746332;23;20052;-68
2023/09/07 10:29:25;;;;;;;7.88;4.15;;;;;;;;;;12747306;23;19993;-68
2023/09/07 10:34:44;;;;;;;4.83;3.60;;;;;;;;;;12746243;23;20006;-68
2023/09/07 10:39:44;;;;;;;11.15;4.60;;;;;;;;;;12746661;23;20307;-68
2023/09/07 10:44:45;;;;;;;7.68;3.60;;;;;;;;;;12746558;23;20064;-68
2023/09/07 10:49:45;;;;;;;4.97;3.95;;;;;;;;;;12700041;23;20483;-68
2023/09/07 10:54:55;;;;;;;11.13;4.70;;;;;;;;;;12745186;23;20032;-68
2023/09/07 10:59:55;;;;;;;7.10;4.40;;;;;;;;;;12746113;23;20012;-70
2023/09/07 11:04:55;;;;;;;7.82;4.90;;;;;;;;;;12745451;23;20212;-69
2023/09/07 11:09:56;;;;;;;9.75;3.90;;;;;;;;;;12746107;23;20017;-67
2023/09/07 11:14:56;;;;;;;8.63;4.37;;;;;;;;;;12746077;23;20183;-68
2023/09/07 11:19:56;;;;;;;8.63;4.97;;;;;;;;;;12723981;23;20006;-68
2023/09/07 11:24:56;;;;;;;8.88;5.03;;;;;;;;;;12745727;23;20036;-68
2023/09/07 11:29:58;;;;;;;10.40;4.43;;;;;;;;;;12745902;23;19993;-68
2023/09/07 11:34:58;;;;;;;7.35;4.68;;;;;;;;;;12745105;23;19997;-69
2023/09/07 11:39:58;;;;;;;6.28;4.32;;;;;;;;;;12745399;23;20300;-68
2023/09/07 11:44:58;;;;;;;5.75;3.40;;;;;;;;;;12745896;23;19982;-68
2023/09/07 11:49:59;;;;;;;11.52;3.65;;;;;;;;;;12745165;23;20019;-70
2023/09/07 11:54:59;;;;;;;6.85;3.75;;;;;;;;;;12745434;23;20045;-69
2023/09/07 12:00:00;;;;;;;11.07;4.72;;;;;;;;;;12745281;23;20021;-69
2023/09/07 12:05:00;;;;;;;8.40;4.10;;;;;;;;;;12745508;23;20208;-68
2023/09/07 12:10:01;;;;;;;5.67;3.83;;;;;;;;;;12743916;23;20005;-68
2023/09/07 12:15:01;;;;;;;7.17;3.53;;;;;;;;;;12745172;23;20221;-69
2023/09/07 12:20:01;;;;;;;4.63;3.70;;;;;;;;;;12727445;23;20167;-69
2023/09/07 12:25:02;;;;;;;6.00;3.70;;;;;;;;;;12744578;23;20623;-69
2023/09/07 12:30:06;;;;;;;6.57;4.20;;;;;;;;;;12733614;23;20173;-68
2023/09/07 12:35:08;;;;;;;6.45;3.78;;;;;;;;;;12745311;23;20025;-68
2023/09/07 12:40:11;;;;;;;5.10;3.65;;;;;;;;;;12744218;23;20272;-68
2023/09/07 12:45:12;;;;;;;8.68;3.95;;;;;;;;;;12744719;23;20313;-68
2023/09/07 12:50:12;;;;;;;9.05;3.70;;;;;;;;;;12744930;23;20176;-68
2023/09/07 12:55:12;;;;;;;6.38;4.30;;;;;;;;;;12744204;23;20264;-68
2023/09/07 13:00:13;;;;;;;4.10;2.85;;;;;;;;;;12744377;23;20323;-69
2023/09/07 13:05:13;;;;;;;14.82;3.88;;;;;;;;;;12723873;23;20052;-69
2023/09/07 13:10:14;;;;;;;8.10;4.03;;;;;;;;;;12744246;23;20299;-69
2023/09/07 13:15:14;;;;;;;9.80;3.70;;;;;;;;;;12745146;23;20012;-69
2023/09/07 13:20:14;;;;;;;9.93;3.65;;;;;;;;;;12726958;23;20013;-68
2023/09/07 13:25:15;;;;;;;5.53;4.10;;;;;;;;;;12748449;23;20076;-68
2023/09/07 13:30:15;;;;;;;6.93;3.17;;;;;;;;;;12747381;23;20184;-69
2023/09/07 13:35:15;;;;;;;8.23;3.65;;;;;;;;;;12748209;23;20064;-70
2023/09/07 13:40:16;;;;;;;3.80;3.10;;;;;;;;;;12747325;23;20121;-70
2023/09/07 13:45:16;;;;;;;5.22;3.95;;;;;;;;;;12747310;23;20288;-67
2023/09/07 13:50:16;;;;;;;6.65;3.03;;;;;;;;;;12726149;23;20021;-68
2023/09/07 13:55:17;;;;;;;9.30;3.20;;;;;;;;;;12747617;23;20013;-68
2023/09/07 14:00:17;;;;;;;8.43;4.30;;;;;;;;;;12746684;23;20008;-68
2023/09/07 14:05:18;;;;;;;4.40;3.50;;;;;;;;;;12747863;23;20181;-68
2023/09/07 14:10:18;;;;;;;8.32;3.65;;;;;;;;;;12739929;23;20108;-68
2023/09/07 14:15:18;;;;;;;10.27;3.20;;;;;;;;;;12746435;23;20025;-70
2023/09/07 14:20:19;;;;;;;7.03;4.03;;;;;;;;;;12725979;23;20453;-70
2023/09/07 14:25:19;;;;;;;4.27;3.07;;;;;;;;;;12746043;23;20001;-71
2023/09/07 14:30:19;;;;;;;8.05;3.40;;;;;;;;;;12745947;23;20028;-70
2023/09/07 14:35:20;;;;;;;5.30;3.67;;;;;;;;;;12746632;23;19989;-68
2023/09/07 14:40:21;;;;;;;6.90;3.47;;;;;;;;;;12746526;23;20332;-69
2023/09/07 14:51:00;;;;;;;8.17;3.60;;;;;;;;;;12725915;23;20009;-69
2023/09/07 14:56:00;;;;;;;6.32;4.05;;;;;;;;;;12746274;23;20057;-69
2023/09/07 15:01:00;;;;;;;9.30;3.78;;;;;;;;;;12746960;23;19993;-69
2023/09/07 15:06:01;;;;;;;13.93;4.50;;;;;;;;;;12745308;23;19989;-69
2023/09/07 15:11:01;;;;;;;10.45;3.90;;;;;;;;;;12745752;23;20052;-69
2023/09/07 15:16:02;;;;;;;11.48;4.30;;;;;;;;;;12742606;23;20104;-69
2023/09/07 15:21:02;;;;;;;9.10;4.70;;;;;;;;;;12745711;23;19989;-69
2023/09/07 15:26:03;;;;;;;7.27;3.80;;;;;;;;;;12745861;23;20296;-69
2023/09/07 15:31:03;;;;;;;11.40;4.07;;;;;;;;;;12745638;23;20224;-68
2023/09/07 15:36:04;;;;;;;5.77;4.33;;;;;;;;;;12745444;23;20137;-68
2023/09/07 15:41:05;;;;;;;9.93;4.50;;;;;;;;;;12745793;23;20330;-68
2023/09/07 15:46:05;;;;;;;10.80;4.38;;;;;;;;;;12745129;23;20220;-70
2023/09/07 15:51:06;;;;;;;8.23;4.60;;;;;;;;;;12745411;23;20052;-69
2023/09/07 15:56:06;;;;;;;7.47;4.40;;;;;;;;;;12745164;23;20040;-68
2023/09/07 16:01:07;;;;;;;8.55;4.00;;;;;;;;;;12744251;23;19990;-69
2023/09/07 16:06:07;;;;;;;5.50;4.28;;;;;;;;;;12725078;23;19997;-68
2023/09/07 16:11:07;;;;;;;12.70;4.87;;;;;;;;;;12745725;23;19989;-69
2023/09/07 16:16:08;;;;;;;7.80;4.50;;;;;;;;;;12741024;23;20020;-69
2023/09/07 16:21:44;;;;;;;6.50;3.92;;;;;;;;;;12745279;23;20267;-69
2023/09/07 16:26:44;;;;;;;10.85;3.97;;;;;;;;;;12565109;23;20013;-69
2023/09/07 16:31:45;;;;;;;10.90;5.10;;;;;;;;;;12722581;23;20237;-70
2023/09/07 16:36:45;;;;;;;13.63;5.22;;;;;;;;;;12744057;23;20001;-69
2023/09/07 16:41:45;;;;;;;9.67;4.20;;;;;;;;;;12744066;23;20101;-69
2023/09/07 16:46:45;;;;;;;10.70;4.70;;;;;;;;;;12745215;23;20512;-70
2023/09/07 16:51:46;;;;;;;9.85;6.03;;;;;;;;;;12743655;23;20002;-70
2023/09/07 16:56:46;;;;;;;15.45;5.10;;;;;;;;;;12745308;23;20021;-70
2023/09/07 17:01:47;;;;;;;11.88;5.50;;;;;;;;;;12743898;23;20209;-74
2023/09/07 17:06:48;;;;;;;10.88;5.38;;;;;;;;;;12746169;23;20598;-75
2023/09/07 17:11:48;;;;;;;16.27;5.78;;;;;;;;;;12747381;23;20012;-73
2023/09/07 17:16:48;;;;;;;14.77;5.93;;;;;;;;;;12741074;23;20298;-68
2023/09/07 17:21:49;;;;;;;12.65;5.40;;;;;;;;;;12746692;23;20063;-68
2023/09/07 17:26:49;;;;;;;19.63;8.20;;;;;;;;;;12746931;23;20051;-68
2023/09/07 17:31:50;;;;;;;14.55;7.85;;;;;;;;;;12745383;23;20052;-68
2023/09/07 17:36:50;;;;;;;13.57;6.35;;;;;;;;;;12720916;23;20402;-68
2023/09/07 17:41:51;;;;;;;16.40;6.72;;;;;;;;;;12743067;23;19999;-67
2023/09/07 17:46:51;;;;;;;17.57;8.10;;;;;;;;;;12745838;23;20021;-68
2023/09/07 17:51:53;;;;;;;14.55;8.20;;;;;;;;;;12744776;23;20924;-69
2023/09/07 17:56:53;;;;;;;12.48;7.03;;;;;;;;;;12744502;23;20009;-70
2023/09/07 18:01:54;;;;;;;14.63;8.37;;;;;;;;;;12746432;23;20053;-70
2023/09/07 18:06:55;;;;;;;13.25;6.28;;;;;;;;;;12743668;23;20055;-70
2023/09/07 18:11:55;;;;;;;18.20;8.05;;;;;;;;;;12742902;23;20006;-70
2023/09/07 18:16:55;;;;;;;13.65;7.00;;;;;;;;;;12736942;23;20009;-70
2023/09/07 18:21:56;;;;;;;13.70;8.27;;;;;;;;;;12724739;23;20025;-69
2023/09/07 18:26:56;;;;;;;15.55;6.82;;;;;;;;;;12745109;23;20006;-70
2023/09/07 18:31:56;;;;;;;15.63;6.90;;;;;;;;;;12721471;23;19997;-68
2023/09/07 18:36:57;;;;;;;12.57;7.33;;;;;;;;;;12742482;23;20060;-68
2023/09/07 18:41:57;;;;;;;14.82;6.43;;;;;;;;;;12743281;23;20013;-68
2023/09/07 18:46:57;;;;;;;10.63;6.27;;;;;;;;;;12746172;23;20000;-68
2023/09/07 18:51:57;;;;;;;12.75;5.47;;;;;;;;;;12745240;23;20060;-68
2023/09/07 18:56:58;;;;;;;15.13;5.90;;;;;;;;;;12745599;23;20314;-68
2023/09/07 19:01:58;;;;;;;12.02;6.07;;;;;;;;;;12745507;23;20000;-72
2023/09/07 19:06:59;;;;;;;9.40;6.10;;;;;;;;;;12745360;23;20219;-73
2023/09/07 19:11:59;;;;;;;20.83;8.50;;;;;;;;;;12745326;23;20676;-66
2023/09/07 19:17:00;;;;;;;12.05;6.32;;;;;;;;;;12738651;23;20809;-74
2023/09/07 19:22:01;;;;;;;8.85;5.35;;;;;;;;;;12743033;23;20002;-73
2023/09/07 19:27:02;;;;;;;11.27;6.17;;;;;;;;;;12745758;23;19993;-77
2023/09/07 19:32:03;;;;;;;12.00;4.72;;;;;;;;;;12723548;23;20554;-82
2023/09/07 19:37:03;;;;;;;14.03;5.17;;;;;;;;;;12703373;23;20084;-84
2023/09/07 19:42:03;;;;;;;8.17;5.27;;;;;;;;;;12752152;23;20467;-76
2023/09/07 19:47:04;;;;;;;11.53;5.60;;;;;;;;;;12746162;23;20008;-72
2023/09/07 19:52:10;;;;;;;10.80;5.72;;;;;;;;;;12745799;23;20002;-88
2023/09/07 19:57:10;;;;;;;7.82;5.50;;;;;;;;;;12749163;23;20051;-70
2023/09/07 20:02:11;;;;;;;11.32;5.70;;;;;;;;;;12744929;23;20341;-79
2023/09/07 20:07:12;;;;;;;10.35;6.28;;;;;;;;;;12743232;23;20287;-77
2023/09/07 20:12:12;;;;;;;8.10;5.20;;;;;;;;;;12743271;23;20068;-79
2023/09/07 20:17:12;;;;;;;32.08;15.50;;;;;;;;;;12735431;23;20304;-77
2023/09/07 20:22:14;;;;;;;9.50;5.72;;;;;;;;;;12743378;23;19985;-77
2023/09/07 20:27:15;;;;;;;8.82;4.90;;;;;;;;;;12744039;23;19998;-77
2023/09/07 20:32:15;;;;;;;9.88;5.68;;;;;;;;;;12746775;23;20362;-79
2023/09/07 20:37:16;;;;;;;10.77;5.53;;;;;;;;;;12724721;23;20013;-78
2023/09/07 20:42:17;;;;;;;9.00;5.10;;;;;;;;;;12747827;23;20168;-78
2023/09/07 20:47:17;;;;;;;12.65;6.20;;;;;;;;;;12746823;23;19993;-77
2023/09/07 20:52:17;;;;;;;9.60;5.25;;;;;;;;;;12746586;23;20223;-78
2023/09/07 20:57:17;;;;;;;8.27;5.20;;;;;;;;;;12746435;23;20200;-76
2023/09/07 21:02:18;;;;;;;8.20;4.28;;;;;;;;;;12700634;23;20171;-76
2023/09/07 21:07:19;;;;;;;11.05;4.70;;;;;;;;;;12746008;23;20001;-75
2023/09/07 21:12:19;;;;;;;10.68;4.15;;;;;;;;;;12746621;23;20017;-75
2023/09/07 21:17:19;;;;;;;8.73;4.30;;;;;;;;;;12738737;23;20001;-75
2023/09/07 21:22:20;;;;;;;7.45;4.97;;;;;;;;;;12745762;23;20004;-75
2023/09/07 21:27:20;;;;;;;8.90;4.38;;;;;;;;;;12745539;23;20192;-74
2023/09/07 21:32:20;;;;;;;14.43;4.93;;;;;;;;;;12743421;23;20064;-73
2023/09/07 21:37:21;;;;;;;10.07;4.88;;;;;;;;;;12747731;23;19997;-72
2023/09/07 21:42:21;;;;;;;11.30;4.93;;;;;;;;;;12754991;23;19993;-69
2023/09/07 21:47:22;;;;;;;13.10;4.90;;;;;;;;;;12757958;23;20037;-70
2023/09/07 21:52:22;;;;;;;6.65;4.65;;;;;;;;;;12758059;23;19996;-71
2023/09/07 21:57:23;;;;;;;5.53;4.40;;;;;;;;;;12757617;23;20033;-71
2023/09/07 22:02:24;;;;;;;7.18;5.05;;;;;;;;;;12757810;23;20268;-71
2023/09/07 22:07:24;;;;;;;12.88;4.90;;;;;;;;;;12758376;23;20149;-71
2023/09/07 22:12:24;;;;;;;12.45;5.72;;;;;;;;;;12757729;23;20264;-70
2023/09/07 22:17:25;;;;;;;10.55;4.95;;;;;;;;;;12749093;23;20288;-70
2023/09/07 22:22:28;;;;;;;7.87;5.20;;;;;;;;;;12757466;23;20005;-70
2023/09/07 22:27:28;;;;;;;7.45;4.85;;;;;;;;;;12757446;23;20009;-71
2023/09/07 22:32:28;;;;;;;9.68;5.10;;;;;;;;;;12757492;23;20291;-71
2023/09/07 22:37:29;;;;;;;5.78;4.45;;;;;;;;;;12710472;23;20005;-71
2023/09/07 22:42:31;;;;;;;12.80;6.17;;;;;;;;;;12757021;23;19985;-69
2023/09/07 22:47:31;;;;;;;10.65;6.15;;;;;;;;;;12756859;23;20271;-69
2023/09/07 22:52:31;;;;;;;9.40;5.78;;;;;;;;;;12756568;23;20092;-69
2023/09/07 22:57:31;;;;;;;20.27;6.53;;;;;;;;;;12734395;23;20020;-69
2023/09/07 23:02:32;;;;;;;8.48;5.93;;;;;;;;;;12756667;23;20208;-68
2023/09/07 23:07:32;;;;;;;7.50;5.78;;;;;;;;;;12756515;23;20179;-69
2023/09/07 23:12:32;;;;;;;10.87;8.20;;;;;;;;;;12756393;23;20025;-70
2023/09/07 23:17:33;;;;;;;17.30;8.75;;;;;;;;;;12748097;23;20359;-69
2023/09/07 23:22:35;;;;;;;17.73;8.55;;;;;;;;;;12756259;23;19990;-69
2023/09/07 23:38:08;;;;;;;19.42;12.02;;;;;;;;;;10535597;27;20422;-70
2023/09/07 23:43:08;;;;;;;16.50;10.55;;;;;;;;;;10535933;28;20032;-70
2023/09/07 23:48:09;;;;;;;15.93;9.77;;;;;;;;;;10535310;28;20023;-70
2023/09/07 23:53:09;;;;;;;18.50;12.00;;;;;;;;;;10535272;28;20341;-71
2023/09/07 23:58:09;;;;;;;18.50;12.82;;;;;;;;;;10535131;28;20020;-70
